createdAt,value
2022-07-29T00:05:00.254Z,1016
2022-07-29T00:19:02.201Z,1016.23
2022-07-29T00:33:00.205Z,1015.57
2022-07-29T00:47:00.297Z,1014.92
2022-07-29T01:01:00.405Z,1014.14
2022-07-29T01:15:00.502Z,1013.41
2022-07-29T01:29:00.510Z,1014.03
2022-07-29T01:43:00.539Z,1014.35
2022-07-29T01:57:00.616Z,1014.39
2022-07-29T02:11:00.842Z,1014.33
2022-07-29T02:25:01.043Z,1014.31
2022-07-29T02:39:00.849Z,1014.26
2022-07-29T02:53:00.844Z,1014.24
2022-07-29T03:07:00.869Z,1014.32
2022-07-29T03:21:00.924Z,1014.36
2022-07-29T03:35:00.918Z,1014.35
2022-07-29T03:50:00.924Z,1014.4
2022-07-29T04:05:00.942Z,1014.42
2022-07-29T04:20:00.951Z,1014.66
2022-07-29T04:35:01.006Z,1014.61
2022-07-29T04:50:01.017Z,1014.61
2022-07-29T05:05:01.028Z,1014.72
2022-07-29T05:20:01.037Z,1014.88
2022-07-29T05:35:01.120Z,1014.86
2022-07-29T05:50:01.286Z,1014.93
2022-07-29T06:05:01.858Z,1014.96
2022-07-29T06:20:01.529Z,1015.09
2022-07-29T06:35:24.726Z,1015.28
2022-07-29T06:50:01.532Z,1015.21
2022-07-29T07:05:01.662Z,1015.25
2022-07-29T07:20:01.699Z,1015.26
2022-07-29T07:35:01.698Z,1015.14
2022-07-29T07:50:01.676Z,1015.19
2022-07-29T08:05:01.663Z,1015.25
2022-07-29T08:20:01.734Z,1015.31
2022-07-29T08:35:02.015Z,1015.24
2022-07-29T08:50:02.024Z,1015.38
2022-07-29T09:05:02.023Z,1015.29
2022-07-29T09:20:02.022Z,1015.03
2022-07-29T09:36:02.075Z,1015.1
2022-07-29T09:51:02.041Z,1014.97
2022-07-29T10:07:04.560Z,1014.94
2022-07-29T10:22:02.332Z,1014.96
2022-07-29T10:37:02.300Z,1014.86
2022-07-29T11:01:36.813Z,1014.65
2022-07-29T11:16:27.474Z,1014.45
2022-07-29T11:31:27.506Z,1014.42
2022-07-29T11:47:27.605Z,1014.36
2022-07-29T12:03:33.077Z,1014.34
2022-07-29T12:18:27.562Z,1014.26
2022-07-29T12:33:27.560Z,1014.19
2022-07-29T12:48:27.691Z,1014.16
2022-07-29T13:03:27.861Z,1013.96
2022-07-29T13:18:27.979Z,1013.81
2022-07-29T13:34:27.988Z,1013.69
2022-07-29T13:49:28.137Z,1013.48
2022-07-29T14:04:28.298Z,1013.32
2022-07-29T14:19:28.492Z,1013.07
2022-07-29T14:34:28.518Z,1013.13
2022-07-29T14:49:28.505Z,1012.99
2022-07-29T15:04:28.472Z,1013.01
2022-07-29T15:19:28.485Z,1012.86
2022-07-29T15:34:28.479Z,1012.6
2022-07-29T15:49:28.663Z,1012.55
2022-07-29T16:04:28.768Z,1012.87
2022-07-29T16:20:28.742Z,1012.88
2022-07-29T16:35:39.415Z,1012.6
2022-07-29T16:50:28.860Z,1012.55
2022-07-29T17:06:29.517Z,1012.94
2022-07-29T17:21:29.054Z,1012.81
2022-07-29T17:36:29.143Z,1013.07
2022-07-29T17:51:29.157Z,1013.8
2022-07-29T18:06:29.175Z,1014.73
2022-07-29T18:21:37.619Z,1015.75
2022-07-29T18:36:29.231Z,1015.07
2022-07-29T18:51:29.253Z,1014.32
2022-07-29T19:06:29.289Z,1014.15
2022-07-29T19:20:29.307Z,1014.3
2022-07-29T19:34:29.309Z,1014.24
2022-07-29T19:48:29.370Z,1014.05
2022-07-29T20:02:29.437Z,1014.08
2022-07-29T20:16:29.452Z,1014.49
2022-07-29T20:30:29.453Z,1015.12
2022-07-29T20:44:29.665Z,1014.56
2022-07-29T20:58:29.453Z,1014.48
2022-07-29T21:12:29.426Z,1014.38
2022-07-29T21:26:29.442Z,1014.24
2022-07-29T21:40:29.469Z,1013.98
2022-07-29T21:54:29.504Z,1014.03
2022-07-29T22:08:29.526Z,1013.9
2022-07-29T22:22:29.475Z,1013.58
2022-07-29T22:36:29.524Z,1013.77
2022-07-29T22:50:29.538Z,1013.66
2022-07-29T23:04:29.546Z,1013.64
2022-07-29T23:18:29.592Z,1013.64
2022-07-29T23:32:29.549Z,1013.58
2022-07-29T23:46:29.673Z,1013.49
